Hiwassee Observed Data For Previous 48 Hours

Caption
Day and Hour Reservoir Elevation (behind dam)* Tailwater Elevation (below dam)* Average Hourly Discharge*
1/16/2019 2 AM EST 1,490.63 1,276.94 0
1/16/2019 3 AM EST 1,490.68 1,276.44 0
1/16/2019 4 AM EST 1,490.75 1,275.99 38
1/16/2019 5 AM EST 1,490.70 1,276.64 4,312
1/16/2019 6 AM EST 1,490.60 1,277.39 8,065
1/16/2019 7 AM EST 1,490.54 1,277.38 8,080
1/16/2019 8 AM EST 1,490.44 1,277.41 8,069
1/16/2019 9 AM EST 1,490.34 1,277.62 8,076
1/16/2019 10 AM EST 1,490.24 1,277.81 8,057
1/16/2019 11 AM EST 1,490.12 1,277.92 8,058
1/16/2019 12 PM EST 1,490.04 1,278.00 8,045
1/16/2019 1 PM EST 1,490.02 1,277.02 4,432
1/16/2019 2 PM EST 1,490.04 1,277.29 4,329
1/16/2019 3 PM EST 1,490.02 1,277.27 4,341
1/16/2019 4 PM EST 1,490.02 1,277.18 4,334
1/16/2019 5 PM EST 1,490.02 1,277.02 4,351
1/16/2019 6 PM EST 1,489.97 1,277.35 4,443
1/16/2019 7 PM EST 1,489.95 1,278.06 8,066
1/16/2019 8 PM EST 1,489.82 1,278.04 8,061
1/16/2019 9 PM EST 1,489.73 1,278.12 8,068
1/16/2019 10 PM EST 1,489.63 1,278.32 8,051
1/16/2019 11 PM EST 1,489.53 1,278.51 8,051
1/17/2019 12 AM EST 1,489.53 1,277.48 4,418
1/17/2019 1 AM EST 1,489.58 1,276.72 164
1/17/2019 2 AM EST 1,489.68 1,277.22 0
1/17/2019 3 AM EST 1,489.75 1,276.70 0
1/17/2019 4 AM EST 1,489.82 1,276.19 0
1/17/2019 5 AM EST 1,489.87 1,275.69 41
1/17/2019 6 AM EST 1,489.85 1,276.80 4,376
1/17/2019 7 AM EST 1,489.78 1,277.38 8,058
1/17/2019 8 AM EST 1,489.68 1,277.24 8,067
1/17/2019 9 AM EST 1,489.61 1,277.33 8,054
1/17/2019 10 AM EST 1,489.49 1,277.60 8,063
1/17/2019 11 AM EST 1,489.36 1,277.73 8,045
1/17/2019 12 PM EST 1,489.31 1,277.80 8,051
1/17/2019 1 PM EST 1,489.26 1,276.75 4,415
1/17/2019 2 PM EST 1,489.33 1,277.08 4,337
1/17/2019 3 PM EST 1,489.31 1,277.03 4,323
1/17/2019 4 PM EST 1,489.29 1,276.93 4,335
1/17/2019 5 PM EST 1,489.31 1,276.76 4,331
1/17/2019 6 PM EST 1,489.24 1,277.12 4,425
1/17/2019 7 PM EST 1,489.24 1,277.91 8,056
1/17/2019 8 PM EST 1,489.11 1,277.87 8,036
1/17/2019 9 PM EST 1,489.04 1,277.91 8,049
1/17/2019 10 PM EST 1,488.97 1,278.14 8,023
1/17/2019 11 PM EST 1,488.87 1,278.33 8,026
1/18/2019 12 AM EST 1,488.87 1,277.29 4,401

Elevations are in feet above sea level. Discharges are in cubic feet per second and are reported at the end of the hour.